TimeCST,TemperatureF,Dew PointF,Humidity,Sea Level PressureIn,VisibilityMPH,Wind Direction,Wind SpeedMPH,Gust SpeedMPH,PrecipitationIn,Events,Conditions,WindDirDegrees,DateUTC
12:08 AM,26.6,21.2,80,30.14,10.0,NW,3.5,-,N/A,,Clear,320,2013-12-01 06:08:00
12:28 AM,24.8,21.2,86,30.14,10.0,Calm,Calm,-,N/A,,Clear,0,2013-12-01 06:28:00
12:48 AM,24.8,21.2,86,30.14,10.0,Calm,Calm,-,N/A,,Clear,0,2013-12-01 06:48:00
1:07 AM,26.6,21.2,80,30.15,10.0,NNW,3.5,-,N/A,,Clear,330,2013-12-01 07:07:00
1:28 AM,26.6,21.2,80,30.15,10.0,NNW,3.5,-,N/A,,Clear,330,2013-12-01 07:28:00
1:48 AM,24.8,21.2,86,30.15,10.0,Calm,Calm,-,N/A,,Clear,0,2013-12-01 07:48:00
2:08 AM,23.0,19.4,86,30.15,10.0,Calm,Calm,-,N/A,,Clear,0,2013-12-01 08:08:00
2:28 AM,23.0,21.2,93,30.15,10.0,Calm,Calm,-,N/A,,Clear,0,2013-12-01 08:28:00
2:48 AM,24.8,21.2,86,30.15,10.0,Calm,Calm,-,N/A,,Clear,0,2013-12-01 08:48:00
3:08 AM,23.0,21.2,93,30.15,7.0,WNW,3.5,-,N/A,,Clear,300,2013-12-01 09:08:00
3:28 AM,19.4,17.6,93,30.15,7.0,Calm,Calm,-,N/A,,Clear,0,2013-12-01 09:28:00
3:48 AM,21.2,19.4,93,30.14,7.0,Calm,Calm,-,N/A,,Clear,0,2013-12-01 09:48:00
4:08 AM,19.4,17.6,93,30.16,7.0,NW,3.5,-,N/A,,Clear,310,2013-12-01 10:08:00
4:28 AM,15.8,14.0,93,30.16,7.0,NW,3.5,-,N/A,,Clear,320,2013-12-01 10:28:00
4:48 AM,21.2,19.4,93,30.16,7.0,Calm,Calm,-,N/A,,Clear,0,2013-12-01 10:48:00
5:08 AM,19.4,17.6,93,30.16,7.0,Calm,Calm,-,N/A,,Clear,0,2013-12-01 11:08:00
5:28 AM,17.6,15.8,93,30.16,7.0,West,3.5,-,N/A,,Clear,280,2013-12-01 11:28:00
5:48 AM,17.6,17.6,100,30.16,7.0,Calm,Calm,-,N/A,,Clear,0,2013-12-01 11:48:00
6:08 AM,17.6,15.8,93,30.16,5.0,Calm,Calm,-,N/A,,Clear,0,2013-12-01 12:08:00
6:28 AM,14.0,12.2,93,30.17,5.0,Calm,Calm,-,N/A,,Clear,0,2013-12-01 12:28:00
6:48 AM,14.0,12.2,93,30.16,4.0,Calm,Calm,-,N/A,,Clear,0,2013-12-01 12:48:00
7:08 AM,15.8,14.0,93,30.17,4.0,Calm,Calm,-,N/A,,Mist,0,2013-12-01 13:08:00
7:28 AM,14.0,12.2,93,30.17,4.0,Calm,Calm,-,N/A,,Mist,0,2013-12-01 13:28:00
7:48 AM,12.2,12.2,100,30.17,4.0,Calm,Calm,-,N/A,,Mist,0,2013-12-01 13:48:00
8:08 AM,15.8,14.0,93,30.17,4.0,Calm,Calm,-,N/A,,Clear,0,2013-12-01 14:08:00
8:28 AM,19.4,17.6,93,30.17,4.0,Calm,Calm,-,N/A,,Clear,0,2013-12-01 14:28:00
8:48 AM,21.2,19.4,93,30.17,4.0,Calm,Calm,-,N/A,,Clear,0,2013-12-01 14:48:00
9:08 AM,23.0,21.2,93,30.17,5.0,Calm,Calm,-,N/A,,Clear,0,2013-12-01 15:08:00
9:28 AM,23.0,21.2,93,30.17,5.0,Calm,Calm,-,N/A,,Clear,0,2013-12-01 15:28:00
9:48 AM,24.8,21.2,86,30.16,5.0,Calm,Calm,-,N/A,,Clear,0,2013-12-01 15:48:00
10:08 AM,24.8,23.0,93,30.16,5.0,Calm,Calm,-,N/A,,Clear,0,2013-12-01 16:08:00
10:27 AM,26.6,23.0,86,30.17,5.0,Calm,Calm,-,N/A,,Mostly Cloudy,0,2013-12-01 16:27:00
10:48 AM,26.6,24.8,93,30.16,5.0,Calm,Calm,-,N/A,,Mist,0,2013-12-01 16:48:00
11:08 AM,28.4,24.8,86,30.15,7.0,Calm,Calm,-,N/A,,Unknown,0,2013-12-01 17:08:00
11:27 AM,28.4,24.8,86,30.14,7.0,Calm,Calm,-,N/A,,Unknown,0,2013-12-01 17:27:00
11:48 AM,28.4,24.8,86,30.13,7.0,Calm,Calm,-,N/A,,Unknown,0,2013-12-01 17:48:00
12:08 PM,30.2,24.8,80,30.12,7.0,Calm,Calm,-,N/A,,Overcast,0,2013-12-01 18:08:00
12:28 PM,30.2,24.8,80,30.11,7.0,Calm,Calm,-,N/A,,Unknown,0,2013-12-01 18:28:00
12:48 PM,30.2,24.8,80,30.10,7.0,Calm,Calm,-,N/A,,Overcast,0,2013-12-01 18:48:00
1:08 PM,32.0,24.8,75,30.09,7.0,Calm,Calm,-,N/A,,Unknown,0,2013-12-01 19:08:00
1:28 PM,32.0,24.8,75,30.08,7.0,Calm,Calm,-,N/A,,Overcast,0,2013-12-01 19:28:00
1:48 PM,32.0,24.8,75,30.07,7.0,Calm,Calm,-,N/A,,Overcast,0,2013-12-01 19:48:00
2:08 PM,32.0,24.8,75,30.06,7.0,Calm,Calm,-,N/A,,Unknown,0,2013-12-01 20:08:00
2:28 PM,33.8,24.8,70,30.05,7.0,Calm,Calm,-,N/A,,Overcast,0,2013-12-01 20:28:00
2:48 PM,33.8,24.8,70,30.04,7.0,Calm,Calm,-,N/A,,Unknown,0,2013-12-01 20:48:00
3:08 PM,33.8,24.8,70,30.04,7.0,Calm,Calm,-,N/A,,Overcast,0,2013-12-01 21:08:00
3:28 PM,33.8,24.8,70,30.04,7.0,Calm,Calm,-,N/A,,Overcast,0,2013-12-01 21:28:00
3:48 PM,32.0,24.8,75,30.04,7.0,Calm,Calm,-,N/A,,Unknown,0,2013-12-01 21:48:00
4:08 PM,32.0,24.8,75,30.04,7.0,Calm,Calm,-,N/A,,Overcast,0,2013-12-01 22:08:00
4:28 PM,30.2,24.8,80,30.03,7.0,East,3.5,-,N/A,,Unknown,80,2013-12-01 22:28:00
4:48 PM,30.2,24.8,80,30.02,5.0,East,3.5,-,N/A,,Haze,100,2013-12-01 22:48:00
5:08 PM,30.2,24.8,80,30.03,7.0,Calm,Calm,-,N/A,,Unknown,0,2013-12-01 23:08:00
5:28 PM,30.2,24.8,80,30.02,7.0,Calm,Calm,-,N/A,,Unknown,0,2013-12-01 23:28:00
5:48 PM,30.2,24.8,80,30.01,7.0,Calm,Calm,-,N/A,,Unknown,0,2013-12-01 23:48:00
6:08 PM,28.4,24.8,86,30.01,7.0,Calm,Calm,-,N/A,,Unknown,0,2013-12-02 00:08:00
6:28 PM,28.4,23.0,80,30.00,7.0,Calm,Calm,-,N/A,,Unknown,0,2013-12-02 00:28:00
6:48 PM,26.6,21.2,80,30.01,7.0,Calm,Calm,-,N/A,,Unknown,0,2013-12-02 00:48:00
7:08 PM,26.6,23.0,86,29.99,7.0,Calm,Calm,-,N/A,,Scattered Clouds,0,2013-12-02 01:08:00
7:28 PM,26.6,23.0,86,29.98,7.0,Calm,Calm,-,N/A,,Unknown,0,2013-12-02 01:28:00
7:48 PM,24.8,21.2,86,29.97,5.0,Calm,Calm,-,N/A,,Mist,0,2013-12-02 01:48:00
8:08 PM,21.2,19.4,93,29.96,5.0,Calm,Calm,-,N/A,,Clear,0,2013-12-02 02:08:00
8:28 PM,23.0,21.2,93,29.96,5.0,Calm,Calm,-,N/A,,Clear,0,2013-12-02 02:28:00
8:48 PM,23.0,21.2,93,29.95,5.0,Calm,Calm,-,N/A,,Clear,0,2013-12-02 02:48:00
9:08 PM,19.4,17.6,93,29.95,4.0,Calm,Calm,-,N/A,,Clear,0,2013-12-02 03:08:00
9:28 PM,19.4,19.4,100,29.95,5.0,Calm,Calm,-,N/A,,Clear,0,2013-12-02 03:28:00
9:48 PM,17.6,15.8,93,29.95,4.0,Calm,Calm,-,N/A,,Clear,0,2013-12-02 03:48:00
10:08 PM,19.4,19.4,100,29.93,4.0,Calm,Calm,-,N/A,,Clear,0,2013-12-02 04:08:00
10:28 PM,17.6,15.8,93,29.94,4.0,Calm,Calm,-,N/A,,Clear,0,2013-12-02 04:28:00
10:48 PM,17.6,17.6,100,29.94,4.0,Calm,Calm,-,N/A,,Mostly Cloudy,0,2013-12-02 04:48:00
11:08 PM,21.2,19.4,93,29.93,4.0,Calm,Calm,-,N/A,,Overcast,0,2013-12-02 05:08:00
11:28 PM,21.2,19.4,93,29.93,5.0,Calm,Calm,-,N/A,,Mist,0,2013-12-02 05:28:00
11:48 PM,21.2,19.4,93,29.91,5.0,Calm,Calm,-,N/A,,Overcast,0,2013-12-02 05:48:00